»·PEaware :: UAL837 KSFO-KRNO

UAL837 :: KSFO-KRNO

FLIGHT INFORMATION

Flight Status: Arrived
Operator:
United Airlines
More flights by this operator :: More flights under this callsign
Pilot: Pratham R. (19019)
Aircraft: AIRBUS A319
(A319)
More flights by this aircraft type
Origin: KSFO San Francisco Intl
United States
Destination: KRNO Reno/Tahoe Intl
United States
More flights between these airports :: More routes between these airports
Route: TRUKN2 ORRCA HOBOA WALAR
File this flight plan on PilotEdge
Remarks: RMK / SIMBRIEF
Altitude:
(Current/Filed)
27,000ft
Speed:
(Current/Filed)
459kts
Departed: 04-Aug-20 12:52 PM
Arrived: 04-Aug-20 01:27 PM
Distance/Time
Traveled:
166nm/0:35
Distance/Time
To Go:
Arrived

Flight Plot

Page will automatically refresh every two minutes.

Flight plan parsing failed; only flown route is shown


Map Options




Map Legend


Flown Route
Filed Route
Departure Airport
Arrival Airport
Navaid (VOR, NDB)
Fix

Horizontal Profiles

Position Reports

Time Latitude Longitude Heading Altitude Ground
Speed
04-Aug-20 12:39 37.617855 -122.380649 257 18ft 0kts
04-Aug-20 12:40 37.617855 -122.380649 257 18ft 0kts
04-Aug-20 12:41 37.617855 -122.380649 257 18ft 0kts
04-Aug-20 12:42 37.617914 -122.380323 257 19ft 2kts
04-Aug-20 12:43 37.618161 -122.379752 195 18ft 2kts
04-Aug-20 12:44 37.618448 -122.379821 148 18ft 0kts
04-Aug-20 12:45 37.618448 -122.379821 148 18ft 0kts
04-Aug-20 12:46 37.618448 -122.379821 148 18ft 0kts
04-Aug-20 12:47 37.618406 -122.379780 142 18ft 2kts
04-Aug-20 12:48 37.615750 -122.380199 208 17ft 19kts
04-Aug-20 12:49 37.610461 -122.383719 208 18ft 20kts
04-Aug-20 12:50 37.608110 -122.382883 80 17ft 9kts
04-Aug-20 12:51 37.625862 -122.370662 26 477ft 169kts
04-Aug-20 12:52 37.658142 -122.321910 51 3389ft 211kts
04-Aug-20 12:53 37.699283 -122.250231 56 5867ft 286kts
04-Aug-20 12:54 37.755844 -122.179815 34 9632ft 295kts
04-Aug-20 12:55 37.827503 -122.115449 34 11833ft 349kts
04-Aug-20 12:56 37.908468 -122.042020 34 14896ft 367kts
04-Aug-20 12:57 37.993174 -121.965043 34 17673ft 382kts
04-Aug-20 12:58 38.080819 -121.885145 34 20109ft 397kts
04-Aug-20 12:59 38.170263 -121.803658 34 22217ft 411kts
04-Aug-20 13:00 38.264642 -121.717156 34 24147ft 425kts
04-Aug-20 13:01 38.361630 -121.627833 34 25876ft 438kts
04-Aug-20 13:02 38.459655 -121.531545 41 26993ft 447kts
04-Aug-20 13:03 38.547751 -121.419895 44 27001ft 447kts
04-Aug-20 13:04 38.635405 -121.307334 45 26997ft 447kts
04-Aug-20 13:05 38.718039 -121.200897 44 26993ft 446kts
04-Aug-20 13:06 38.805572 -121.088142 45 26663ft 442kts
04-Aug-20 13:07 38.892560 -120.975658 46 25629ft 434kts
04-Aug-20 13:08 38.975422 -120.867980 46 22198ft 414kts
04-Aug-20 13:09 39.054137 -120.765406 45 19583ft 398kts
04-Aug-20 13:10 39.129710 -120.666899 45 18456ft 390kts
04-Aug-20 13:11 39.205062 -120.568407 45 17410ft 383kts
04-Aug-20 13:12 39.279273 -120.470772 45 16430ft 377kts
04-Aug-20 13:13 39.352602 -120.373900 45 16148ft 375kts
04-Aug-20 13:14 39.423625 -120.276735 49 16136ft 375kts
04-Aug-20 13:15 39.489283 -120.178484 49 14774ft 334kts
04-Aug-20 13:16 39.547642 -120.090960 49 12488ft 316kts
04-Aug-20 13:17 39.601411 -120.010180 49 11549ft 272kts
04-Aug-20 13:18 39.648791 -119.938815 50 10003ft 256kts
04-Aug-20 13:19 39.694143 -119.870337 50 9023ft 232kts
04-Aug-20 13:20 39.732475 -119.810005 72 8805ft 210kts
04-Aug-20 13:21 39.698163 -119.766891 174 9031ft 208kts
04-Aug-20 13:22 39.637690 -119.765653 181 7495ft 233kts
04-Aug-20 13:23 39.581293 -119.765726 176 6053ft 172kts
04-Aug-20 13:24 39.538141 -119.766632 177 5032ft 153kts
04-Aug-20 13:25 39.499126 -119.766753 179 4424ft 79kts
04-Aug-20 13:26 39.493494 -119.768702 215 4424ft 11kts
04-Aug-20 13:27 39.494189 -119.771544 1 4424ft 15kts
04-Aug-20 13:28 39.499134 -119.771515 0 4424ft 21kts
04-Aug-20 13:29 39.503755 -119.772381 269 4424ft 12kts
04-Aug-20 13:30 39.503098 -119.773061 179 4424ft 0kts
04-Aug-20 13:31 39.503098 -119.773061 179 4424ft 0kts
04-Aug-20 13:32 39.503098 -119.773061 179 4424ft 0kts
04-Aug-20 13:33 39.503098 -119.773061 179 4424ft 0kts
04-Aug-20 13:34 39.503098 -119.773061 179 4424ft 0kts
04-Aug-20 13:35 39.503098 -119.773061 179 4424ft 0kts
04-Aug-20 13:36 39.503098 -119.773061 179 4424ft 0kts
04-Aug-20 13:37 39.503098 -119.773061 179 4424ft 0kts
04-Aug-20 13:39 39.503098 -119.773061 179 4424ft 0kts
04-Aug-20 13:40 39.503098 -119.773061 179 4424ft 0kts
04-Aug-20 13:41 39.503098 -119.773061 179 4424ft 0kts

Navigation Log

Ident Type
Flight plan parsing failed, navigation log unavailable